sensor_id;sensor_type;location;lat;lon;timestamp;P1;durP1;ratioP1;P2;durP2;ratioP2
12535;SDS011;6334;48.696;2.114;2023-02-13T00:00:57;26.73;;;18.87;;
12535;SDS011;6334;48.696;2.114;2023-02-13T00:03:27;28.67;;;19.17;;
12535;SDS011;6334;48.696;2.114;2023-02-13T00:09:01;40.74;;;25.54;;
12535;SDS011;6334;48.696;2.114;2023-02-13T00:11:31;43.48;;;28.92;;
12535;SDS011;6334;48.696;2.114;2023-02-13T00:14:08;44.04;;;29.37;;
12535;SDS011;6334;48.696;2.114;2023-02-13T00:16:53;43.04;;;29.18;;
12535;SDS011;6334;48.696;2.114;2023-02-13T00:19:26;33.47;;;21.10;;
12535;SDS011;6334;48.696;2.114;2023-02-13T00:21:56;28.67;;;20.10;;
12535;SDS011;6334;48.696;2.114;2023-02-13T00:24:26;30.00;;;19.40;;
12535;SDS011;6334;48.696;2.114;2023-02-13T00:26:57;28.37;;;18.87;;
12535;SDS011;6334;48.696;2.114;2023-02-13T00:29:27;26.33;;;17.43;;
12535;SDS011;6334;48.696;2.114;2023-02-13T00:31:58;25.03;;;16.50;;
12535;SDS011;6334;48.696;2.114;2023-02-13T00:34:28;25.87;;;17.53;;
12535;SDS011;6334;48.696;2.114;2023-02-13T00:39:49;27.17;;;18.23;;
12535;SDS011;6334;48.696;2.114;2023-02-13T00:42:21;26.14;;;17.33;;
12535;SDS011;6334;48.696;2.114;2023-02-13T00:45:00;27.80;;;17.83;;
12535;SDS011;6334;48.696;2.114;2023-02-13T00:50:25;25.63;;;16.67;;
12535;SDS011;6334;48.696;2.114;2023-02-13T00:53:07;23.86;;;16.08;;
12535;SDS011;6334;48.696;2.114;2023-02-13T00:55:44;23.89;;;15.88;;
12535;SDS011;6334;48.696;2.114;2023-02-13T01:01:19;22.27;;;15.10;;
12535;SDS011;6334;48.696;2.114;2023-02-13T01:10:41;21.80;;;14.93;;
12535;SDS011;6334;48.696;2.114;2023-02-13T01:13:25;21.10;;;14.42;;
12535;SDS011;6334;48.696;2.114;2023-02-13T01:15:59;20.32;;;14.10;;
12535;SDS011;6334;48.696;2.114;2023-02-13T01:18:44;21.07;;;14.34;;
12535;SDS011;6334;48.696;2.114;2023-02-13T01:21:16;21.75;;;14.25;;
12535;SDS011;6334;48.696;2.114;2023-02-13T01:23:45;19.93;;;13.75;;
12535;SDS011;6334;48.696;2.114;2023-02-13T01:26:16;22.32;;;14.74;;
12535;SDS011;6334;48.696;2.114;2023-02-13T01:28:45;20.17;;;13.33;;
12535;SDS011;6334;48.696;2.114;2023-02-13T01:31:14;18.90;;;13.27;;
12535;SDS011;6334;48.696;2.114;2023-02-13T01:33:50;20.97;;;14.33;;
12535;SDS011;6334;48.696;2.114;2023-02-13T01:36:20;19.06;;;12.53;;
12535;SDS011;6334;48.696;2.114;2023-02-13T01:38:54;19.23;;;12.97;;
12535;SDS011;6334;48.696;2.114;2023-02-13T01:41:39;21.13;;;14.46;;
12535;SDS011;6334;48.696;2.114;2023-02-13T01:50:12;20.95;;;14.85;;
12535;SDS011;6334;48.696;2.114;2023-02-13T01:52:41;21.47;;;13.73;;
12535;SDS011;6334;48.696;2.114;2023-02-13T01:58:03;20.89;;;13.79;;
12535;SDS011;6334;48.696;2.114;2023-02-13T02:00:31;20.40;;;14.20;;
12535;SDS011;6334;48.696;2.114;2023-02-13T02:03:12;18.69;;;13.20;;
12535;SDS011;6334;48.696;2.114;2023-02-13T02:05:41;21.33;;;12.39;;
12535;SDS011;6334;48.696;2.114;2023-02-13T02:08:12;19.63;;;13.07;;
12535;SDS011;6334;48.696;2.114;2023-02-13T02:10:42;20.57;;;14.33;;
12535;SDS011;6334;48.696;2.114;2023-02-13T02:13:16;19.77;;;12.70;;
12535;SDS011;6334;48.696;2.114;2023-02-13T02:15:45;20.67;;;14.63;;
12535;SDS011;6334;48.696;2.114;2023-02-13T02:18:15;17.94;;;12.56;;
12535;SDS011;6334;48.696;2.114;2023-02-13T02:43:29;20.50;;;13.53;;
12535;SDS011;6334;48.696;2.114;2023-02-13T02:46:37;21.42;;;14.00;;
12535;SDS011;6334;48.696;2.114;2023-02-13T02:48:48;20.77;;;14.13;;
12535;SDS011;6334;48.696;2.114;2023-02-13T02:54:44;22.80;;;13.55;;
12535;SDS011;6334;48.696;2.114;2023-02-13T02:57:38;19.98;;;13.00;;
12535;SDS011;6334;48.696;2.114;2023-02-13T03:03:25;20.17;;;13.30;;
12535;SDS011;6334;48.696;2.114;2023-02-13T03:06:18;21.40;;;14.53;;
12535;SDS011;6334;48.696;2.114;2023-02-13T03:15:52;20.56;;;14.51;;
12535;SDS011;6334;48.696;2.114;2023-02-13T03:18:40;21.07;;;14.40;;
12535;SDS011;6334;48.696;2.114;2023-02-13T03:27:30;20.93;;;14.23;;
12535;SDS011;6334;48.696;2.114;2023-02-13T03:33:48;19.87;;;13.40;;
12535;SDS011;6334;48.696;2.114;2023-02-13T03:42:06;19.33;;;13.02;;
12535;SDS011;6334;48.696;2.114;2023-02-13T03:44:37;21.75;;;13.57;;
12535;SDS011;6334;48.696;2.114;2023-02-13T03:47:07;19.98;;;13.70;;
12535;SDS011;6334;48.696;2.114;2023-02-13T03:49:39;22.60;;;15.20;;
12535;SDS011;6334;48.696;2.114;2023-02-13T03:52:30;19.17;;;13.67;;
12535;SDS011;6334;48.696;2.114;2023-02-13T03:57:52;21.10;;;14.60;;
12535;SDS011;6334;48.696;2.114;2023-02-13T04:03:35;19.50;;;13.62;;
12535;SDS011;6334;48.696;2.114;2023-02-13T04:06:12;20.03;;;14.17;;
12535;SDS011;6334;48.696;2.114;2023-02-13T04:08:43;21.19;;;13.89;;
12535;SDS011;6334;48.696;2.114;2023-02-13T04:11:14;19.13;;;12.61;;
12535;SDS011;6334;48.696;2.114;2023-02-13T04:13:56;21.40;;;13.77;;
12535;SDS011;6334;48.696;2.114;2023-02-13T04:16:39;21.27;;;14.30;;
12535;SDS011;6334;48.696;2.114;2023-02-13T04:19:11;21.58;;;14.10;;
12535;SDS011;6334;48.696;2.114;2023-02-13T04:21:43;19.27;;;13.25;;
12535;SDS011;6334;48.696;2.114;2023-02-13T04:24:12;21.17;;;13.77;;
12535;SDS011;6334;48.696;2.114;2023-02-13T04:26:43;20.37;;;13.80;;
12535;SDS011;6334;48.696;2.114;2023-02-13T04:29:14;21.40;;;14.07;;
12535;SDS011;6334;48.696;2.114;2023-02-13T04:31:44;20.13;;;13.97;;
12535;SDS011;6334;48.696;2.114;2023-02-13T04:34:16;20.10;;;13.60;;
12535;SDS011;6334;48.696;2.114;2023-02-13T04:36:48;20.68;;;12.92;;
12535;SDS011;6334;48.696;2.114;2023-02-13T04:39:22;20.28;;;13.23;;
12535;SDS011;6334;48.696;2.114;2023-02-13T04:41:52;19.97;;;13.57;;
12535;SDS011;6334;48.696;2.114;2023-02-13T04:44:25;20.62;;;13.82;;
12535;SDS011;6334;48.696;2.114;2023-02-13T04:46:55;21.29;;;13.14;;
12535;SDS011;6334;48.696;2.114;2023-02-13T04:49:25;21.30;;;13.93;;
12535;SDS011;6334;48.696;2.114;2023-02-13T04:51:56;21.93;;;14.33;;
12535;SDS011;6334;48.696;2.114;2023-02-13T04:54:27;19.57;;;13.27;;
12535;SDS011;6334;48.696;2.114;2023-02-13T04:57:00;20.99;;;14.16;;
12535;SDS011;6334;48.696;2.114;2023-02-13T04:59:30;21.78;;;13.82;;
12535;SDS011;6334;48.696;2.114;2023-02-13T05:02:05;22.00;;;14.41;;
12535;SDS011;6334;48.696;2.114;2023-02-13T05:04:36;20.00;;;12.85;;
12535;SDS011;6334;48.696;2.114;2023-02-13T05:07:07;20.00;;;13.00;;
12535;SDS011;6334;48.696;2.114;2023-02-13T05:09:37;21.54;;;14.22;;
12535;SDS011;6334;48.696;2.114;2023-02-13T05:12:07;21.25;;;13.43;;
12535;SDS011;6334;48.696;2.114;2023-02-13T05:14:37;21.78;;;13.93;;
12535;SDS011;6334;48.696;2.114;2023-02-13T05:17:09;21.30;;;13.45;;
12535;SDS011;6334;48.696;2.114;2023-02-13T05:19:39;21.85;;;14.25;;
12535;SDS011;6334;48.696;2.114;2023-02-13T05:22:11;22.50;;;15.00;;
12535;SDS011;6334;48.696;2.114;2023-02-13T05:24:59;24.93;;;14.70;;
12535;SDS011;6334;48.696;2.114;2023-02-13T05:27:30;20.40;;;14.33;;
12535;SDS011;6334;48.696;2.114;2023-02-13T05:30:00;19.53;;;13.47;;
12535;SDS011;6334;48.696;2.114;2023-02-13T05:32:30;21.50;;;14.03;;
12535;SDS011;6334;48.696;2.114;2023-02-13T05:35:00;24.30;;;15.47;;
12535;SDS011;6334;48.696;2.114;2023-02-13T05:37:34;22.23;;;14.58;;
12535;SDS011;6334;48.696;2.114;2023-02-13T05:40:04;22.30;;;14.38;;
12535;SDS011;6334;48.696;2.114;2023-02-13T05:42:35;22.67;;;15.30;;
12535;SDS011;6334;48.696;2.114;2023-02-13T05:45:08;21.40;;;14.38;;
12535;SDS011;6334;48.696;2.114;2023-02-13T05:47:38;21.07;;;14.60;;
12535;SDS011;6334;48.696;2.114;2023-02-13T05:50:11;20.83;;;13.60;;
12535;SDS011;6334;48.696;2.114;2023-02-13T05:52:42;21.50;;;14.50;;
12535;SDS011;6334;48.696;2.114;2023-02-13T05:55:12;21.00;;;14.40;;
12535;SDS011;6334;48.696;2.114;2023-02-13T05:57:42;21.73;;;14.00;;
12535;SDS011;6334;48.696;2.114;2023-02-13T06:00:16;23.22;;;15.15;;
12535;SDS011;6334;48.696;2.114;2023-02-13T06:02:46;21.40;;;14.68;;
12535;SDS011;6334;48.696;2.114;2023-02-13T06:05:16;21.85;;;14.48;;
12535;SDS011;6334;48.696;2.114;2023-02-13T06:07:46;22.02;;;13.87;;
12535;SDS011;6334;48.696;2.114;2023-02-13T06:10:17;20.50;;;13.43;;
12535;SDS011;6334;48.696;2.114;2023-02-13T06:12:47;19.60;;;13.90;;
12535;SDS011;6334;48.696;2.114;2023-02-13T06:15:16;21.60;;;14.02;;
12535;SDS011;6334;48.696;2.114;2023-02-13T06:17:49;21.53;;;14.80;;
12535;SDS011;6334;48.696;2.114;2023-02-13T06:20:20;20.27;;;14.05;;
12535;SDS011;6334;48.696;2.114;2023-02-13T06:22:50;19.60;;;13.67;;
12535;SDS011;6334;48.696;2.114;2023-02-13T06:25:21;21.80;;;14.98;;
12535;SDS011;6334;48.696;2.114;2023-02-13T06:27:54;23.47;;;15.80;;
12535;SDS011;6334;48.696;2.114;2023-02-13T06:30:29;22.36;;;15.86;;
12535;SDS011;6334;48.696;2.114;2023-02-13T06:32:58;24.67;;;15.93;;
12535;SDS011;6334;48.696;2.114;2023-02-13T06:35:28;22.23;;;15.23;;
12535;SDS011;6334;48.696;2.114;2023-02-13T06:37:58;23.20;;;15.63;;
12535;SDS011;6334;48.696;2.114;2023-02-13T06:40:28;19.80;;;13.50;;
12535;SDS011;6334;48.696;2.114;2023-02-13T06:43:00;19.37;;;14.53;;
12535;SDS011;6334;48.696;2.114;2023-02-13T06:45:33;23.10;;;15.92;;
12535;SDS011;6334;48.696;2.114;2023-02-13T06:48:03;15.77;;;10.65;;
12535;SDS011;6334;48.696;2.114;2023-02-13T06:50:36;21.57;;;14.23;;
12535;SDS011;6334;48.696;2.114;2023-02-13T06:53:06;21.27;;;14.78;;
12535;SDS011;6334;48.696;2.114;2023-02-13T06:55:36;22.87;;;14.87;;
12535;SDS011;6334;48.696;2.114;2023-02-13T06:58:06;22.77;;;15.33;;
12535;SDS011;6334;48.696;2.114;2023-02-13T07:00:37;22.67;;;14.87;;
12535;SDS011;6334;48.696;2.114;2023-02-13T07:03:09;22.37;;;15.05;;
12535;SDS011;6334;48.696;2.114;2023-02-13T07:05:39;24.83;;;15.17;;
12535;SDS011;6334;48.696;2.114;2023-02-13T07:08:08;24.13;;;15.27;;
12535;SDS011;6334;48.696;2.114;2023-02-13T07:10:38;23.20;;;15.63;;
12535;SDS011;6334;48.696;2.114;2023-02-13T07:13:08;23.47;;;17.00;;
12535;SDS011;6334;48.696;2.114;2023-02-13T07:15:37;24.37;;;15.53;;
12535;SDS011;6334;48.696;2.114;2023-02-13T07:18:07;23.63;;;16.57;;
12535;SDS011;6334;48.696;2.114;2023-02-13T07:20:40;23.62;;;15.74;;
12535;SDS011;6334;48.696;2.114;2023-02-13T07:23:10;20.60;;;14.67;;
12535;SDS011;6334;48.696;2.114;2023-02-13T07:25:42;25.43;;;15.73;;
12535;SDS011;6334;48.696;2.114;2023-02-13T07:28:13;22.53;;;14.83;;
12535;SDS011;6334;48.696;2.114;2023-02-13T07:30:43;24.63;;;14.77;;
12535;SDS011;6334;48.696;2.114;2023-02-13T07:33:12;23.97;;;15.13;;
12535;SDS011;6334;48.696;2.114;2023-02-13T07:35:48;26.00;;;16.80;;
12535;SDS011;6334;48.696;2.114;2023-02-13T07:38:18;25.83;;;18.23;;
12535;SDS011;6334;48.696;2.114;2023-02-13T07:40:48;21.90;;;15.07;;
12535;SDS011;6334;48.696;2.114;2023-02-13T07:43:18;22.97;;;15.03;;
12535;SDS011;6334;48.696;2.114;2023-02-13T07:45:48;22.70;;;15.23;;
12535;SDS011;6334;48.696;2.114;2023-02-13T07:48:23;20.60;;;14.30;;
12535;SDS011;6334;48.696;2.114;2023-02-13T07:50:53;22.31;;;14.34;;
12535;SDS011;6334;48.696;2.114;2023-02-13T07:53:22;24.80;;;15.00;;
12535;SDS011;6334;48.696;2.114;2023-02-13T07:55:53;23.10;;;14.47;;
12535;SDS011;6334;48.696;2.114;2023-02-13T07:58:23;26.93;;;17.27;;
12535;SDS011;6334;48.696;2.114;2023-02-13T08:00:54;24.77;;;16.08;;
12535;SDS011;6334;48.696;2.114;2023-02-13T08:03:24;26.63;;;16.37;;
12535;SDS011;6334;48.696;2.114;2023-02-13T08:05:55;25.40;;;16.50;;
12535;SDS011;6334;48.696;2.114;2023-02-13T08:08:25;21.24;;;14.70;;
12535;SDS011;6334;48.696;2.114;2023-02-13T08:10:55;24.83;;;15.83;;
12535;SDS011;6334;48.696;2.114;2023-02-13T08:13:44;23.45;;;15.80;;
12535;SDS011;6334;48.696;2.114;2023-02-13T08:16:14;22.98;;;15.62;;
12535;SDS011;6334;48.696;2.114;2023-02-13T08:18:45;22.13;;;15.20;;
12535;SDS011;6334;48.696;2.114;2023-02-13T08:21:15;26.33;;;16.23;;
12535;SDS011;6334;48.696;2.114;2023-02-13T08:23:48;25.55;;;16.35;;
12535;SDS011;6334;48.696;2.114;2023-02-13T08:26:21;23.50;;;15.23;;
12535;SDS011;6334;48.696;2.114;2023-02-13T08:28:51;24.63;;;15.80;;
12535;SDS011;6334;48.696;2.114;2023-02-13T08:31:26;22.47;;;15.03;;
12535;SDS011;6334;48.696;2.114;2023-02-13T08:33:56;23.03;;;15.13;;
12535;SDS011;6334;48.696;2.114;2023-02-13T08:36:27;25.63;;;16.13;;
12535;SDS011;6334;48.696;2.114;2023-02-13T08:38:57;24.26;;;16.28;;
12535;SDS011;6334;48.696;2.114;2023-02-13T08:41:26;24.08;;;15.88;;
12535;SDS011;6334;48.696;2.114;2023-02-13T08:43:57;25.10;;;16.10;;
12535;SDS011;6334;48.696;2.114;2023-02-13T08:46:27;25.30;;;16.70;;
12535;SDS011;6334;48.696;2.114;2023-02-13T08:49:01;23.36;;;15.39;;
12535;SDS011;6334;48.696;2.114;2023-02-13T08:51:32;28.13;;;17.30;;
12535;SDS011;6334;48.696;2.114;2023-02-13T08:54:03;24.30;;;15.37;;
12535;SDS011;6334;48.696;2.114;2023-02-13T08:56:33;27.93;;;17.33;;
12535;SDS011;6334;48.696;2.114;2023-02-13T08:59:04;25.57;;;15.93;;
12535;SDS011;6334;48.696;2.114;2023-02-13T09:01:34;24.17;;;16.03;;
12535;SDS011;6334;48.696;2.114;2023-02-13T09:04:05;26.27;;;16.92;;
12535;SDS011;6334;48.696;2.114;2023-02-13T09:06:36;27.00;;;16.97;;
12535;SDS011;6334;48.696;2.114;2023-02-13T09:09:06;25.20;;;16.43;;
12535;SDS011;6334;48.696;2.114;2023-02-13T09:11:37;26.47;;;17.40;;
12535;SDS011;6334;48.696;2.114;2023-02-13T09:14:07;25.77;;;17.07;;
12535;SDS011;6334;48.696;2.114;2023-02-13T09:16:39;24.67;;;17.02;;
12535;SDS011;6334;48.696;2.114;2023-02-13T09:19:09;25.23;;;16.73;;
12535;SDS011;6334;48.696;2.114;2023-02-13T09:21:40;24.35;;;15.95;;
12535;SDS011;6334;48.696;2.114;2023-02-13T09:24:11;23.50;;;15.93;;
12535;SDS011;6334;48.696;2.114;2023-02-13T09:26:41;24.13;;;16.03;;
12535;SDS011;6334;48.696;2.114;2023-02-13T09:29:12;23.23;;;15.20;;
12535;SDS011;6334;48.696;2.114;2023-02-13T09:31:41;22.97;;;15.00;;
12535;SDS011;6334;48.696;2.114;2023-02-13T09:34:13;24.73;;;16.20;;
12535;SDS011;6334;48.696;2.114;2023-02-13T09:36:44;24.30;;;15.83;;
12535;SDS011;6334;48.696;2.114;2023-02-13T09:39:14;25.44;;;15.84;;
12535;SDS011;6334;48.696;2.114;2023-02-13T09:41:46;23.32;;;14.98;;
12535;SDS011;6334;48.696;2.114;2023-02-13T09:44:18;22.87;;;15.10;;
12535;SDS011;6334;48.696;2.114;2023-02-13T09:49:36;25.13;;;16.63;;
12535;SDS011;6334;48.696;2.114;2023-02-13T09:52:06;21.67;;;14.27;;
12535;SDS011;6334;48.696;2.114;2023-02-13T09:54:35;23.78;;;16.26;;
12535;SDS011;6334;48.696;2.114;2023-02-13T09:59:59;24.03;;;15.58;;
12535;SDS011;6334;48.696;2.114;2023-02-13T10:05:36;24.40;;;17.33;;
12535;SDS011;6334;48.696;2.114;2023-02-13T10:16:54;25.35;;;17.08;;
12535;SDS011;6334;48.696;2.114;2023-02-13T10:19:40;22.83;;;16.60;;
12535;SDS011;6334;48.696;2.114;2023-02-13T10:22:20;25.63;;;16.60;;
12535;SDS011;6334;48.696;2.114;2023-02-13T10:25:03;23.90;;;16.10;;
12535;SDS011;6334;48.696;2.114;2023-02-13T10:27:39;24.54;;;16.62;;
12535;SDS011;6334;48.696;2.114;2023-02-13T10:30:07;23.50;;;16.03;;
12535;SDS011;6334;48.696;2.114;2023-02-13T10:36:00;24.53;;;16.63;;
12535;SDS011;6334;48.696;2.114;2023-02-13T10:38:31;22.47;;;16.00;;
12535;SDS011;6334;48.696;2.114;2023-02-13T10:44:16;24.74;;;15.98;;
12535;SDS011;6334;48.696;2.114;2023-02-13T10:47:01;23.60;;;16.13;;
12535;SDS011;6334;48.696;2.114;2023-02-13T10:49:42;23.36;;;16.51;;
12535;SDS011;6334;48.696;2.114;2023-02-13T10:55:30;23.22;;;15.52;;
12535;SDS011;6334;48.696;2.114;2023-02-13T10:58:20;26.27;;;15.73;;
12535;SDS011;6334;48.696;2.114;2023-02-13T11:03:25;27.47;;;17.37;;
12535;SDS011;6334;48.696;2.114;2023-02-13T11:05:54;23.80;;;14.67;;
12535;SDS011;6334;48.696;2.114;2023-02-13T11:08:39;24.20;;;16.20;;
12535;SDS011;6334;48.696;2.114;2023-02-13T11:11:31;21.57;;;14.93;;
12535;SDS011;6334;48.696;2.114;2023-02-13T11:19:32;21.63;;;14.43;;
12535;SDS011;6334;48.696;2.114;2023-02-13T11:22:10;21.90;;;15.73;;
12535;SDS011;6334;48.696;2.114;2023-02-13T11:24:38;21.87;;;15.57;;
12535;SDS011;6334;48.696;2.114;2023-02-13T11:27:10;20.70;;;14.10;;
12535;SDS011;6334;48.696;2.114;2023-02-13T11:29:55;22.30;;;15.23;;
12535;SDS011;6334;48.696;2.114;2023-02-13T11:34:54;21.43;;;14.50;;
12535;SDS011;6334;48.696;2.114;2023-02-13T11:37:28;22.53;;;15.63;;
12535;SDS011;6334;48.696;2.114;2023-02-13T11:39:58;21.63;;;16.00;;
12535;SDS011;6334;48.696;2.114;2023-02-13T11:42:33;24.40;;;17.03;;
12535;SDS011;6334;48.696;2.114;2023-02-13T11:45:39;26.73;;;18.53;;
12535;SDS011;6334;48.696;2.114;2023-02-13T11:47:55;24.83;;;18.57;;
12535;SDS011;6334;48.696;2.114;2023-02-13T11:50:29;25.53;;;17.90;;
12535;SDS011;6334;48.696;2.114;2023-02-13T11:52:59;22.40;;;16.53;;
12535;SDS011;6334;48.696;2.114;2023-02-13T11:55:33;25.07;;;17.20;;
12535;SDS011;6334;48.696;2.114;2023-02-13T12:00:44;25.75;;;17.92;;
12535;SDS011;6334;48.696;2.114;2023-02-13T12:06:03;26.17;;;18.10;;
12535;SDS011;6334;48.696;2.114;2023-02-13T12:08:38;26.13;;;18.17;;
12535;SDS011;6334;48.696;2.114;2023-02-13T12:14:04;25.33;;;17.43;;
12535;SDS011;6334;48.696;2.114;2023-02-13T12:19:06;24.70;;;18.20;;
12535;SDS011;6334;48.696;2.114;2023-02-13T12:24:11;27.33;;;18.20;;
12535;SDS011;6334;48.696;2.114;2023-02-13T12:26:44;25.45;;;17.87;;
12535;SDS011;6334;48.696;2.114;2023-02-13T12:35:20;23.60;;;15.38;;
12535;SDS011;6334;48.696;2.114;2023-02-13T12:38:02;21.03;;;15.30;;
12535;SDS011;6334;48.696;2.114;2023-02-13T12:41:08;24.63;;;16.48;;
12535;SDS011;6334;48.696;2.114;2023-02-13T12:48:31;22.47;;;16.30;;
12535;SDS011;6334;48.696;2.114;2023-02-13T12:51:11;22.20;;;15.53;;
12535;SDS011;6334;48.696;2.114;2023-02-13T13:02:46;19.63;;;13.37;;
12535;SDS011;6334;48.696;2.114;2023-02-13T13:13:17;19.33;;;13.40;;
12535;SDS011;6334;48.696;2.114;2023-02-13T13:21:08;18.40;;;12.73;;
12535;SDS011;6334;48.696;2.114;2023-02-13T13:24:12;19.73;;;13.75;;
12535;SDS011;6334;48.696;2.114;2023-02-13T13:28:52;18.17;;;13.03;;
12535;SDS011;6334;48.696;2.114;2023-02-13T13:31:21;19.00;;;13.07;;
12535;SDS011;6334;48.696;2.114;2023-02-13T13:33:51;17.70;;;12.67;;
12535;SDS011;6334;48.696;2.114;2023-02-13T13:39:08;21.33;;;14.33;;
12535;SDS011;6334;48.696;2.114;2023-02-13T13:41:50;19.57;;;13.27;;
12535;SDS011;6334;48.696;2.114;2023-02-13T13:44:25;17.53;;;12.43;;
12535;SDS011;6334;48.696;2.114;2023-02-13T13:47:23;19.40;;;12.73;;
12535;SDS011;6334;48.696;2.114;2023-02-13T13:49:58;18.67;;;13.27;;
12535;SDS011;6334;48.696;2.114;2023-02-13T13:52:30;19.13;;;13.10;;
12535;SDS011;6334;48.696;2.114;2023-02-13T13:55:01;18.27;;;11.83;;
12535;SDS011;6334;48.696;2.114;2023-02-13T14:02:46;18.42;;;12.80;;
12535;SDS011;6334;48.696;2.114;2023-02-13T14:05:29;19.57;;;14.03;;
12535;SDS011;6334;48.696;2.114;2023-02-13T14:07:58;17.40;;;11.97;;
12535;SDS011;6334;48.696;2.114;2023-02-13T14:20:54;18.77;;;13.20;;
12535;SDS011;6334;48.696;2.114;2023-02-13T14:23:43;19.90;;;13.67;;
12535;SDS011;6334;48.696;2.114;2023-02-13T14:31:24;18.80;;;12.20;;
12535;SDS011;6334;48.696;2.114;2023-02-13T14:34:15;18.27;;;12.13;;
12535;SDS011;6334;48.696;2.114;2023-02-13T14:36:38;16.97;;;12.03;;
12535;SDS011;6334;48.696;2.114;2023-02-13T14:39:30;17.40;;;11.43;;
12535;SDS011;6334;48.696;2.114;2023-02-13T14:42:00;16.80;;;11.47;;
12535;SDS011;6334;48.696;2.114;2023-02-13T14:44:45;16.93;;;11.47;;
12535;SDS011;6334;48.696;2.114;2023-02-13T14:47:26;15.70;;;10.97;;
12535;SDS011;6334;48.696;2.114;2023-02-13T14:49:53;16.27;;;10.80;;
12535;SDS011;6334;48.696;2.114;2023-02-13T14:52:25;17.75;;;11.25;;
12535;SDS011;6334;48.696;2.114;2023-02-13T14:57:36;16.77;;;11.50;;
12535;SDS011;6334;48.696;2.114;2023-02-13T15:00:22;15.60;;;11.00;;
12535;SDS011;6334;48.696;2.114;2023-02-13T15:02:58;17.30;;;11.07;;
12535;SDS011;6334;48.696;2.114;2023-02-13T15:05:33;16.53;;;11.83;;
12535;SDS011;6334;48.696;2.114;2023-02-13T15:08:15;18.40;;;12.50;;
12535;SDS011;6334;48.696;2.114;2023-02-13T15:10:48;20.53;;;12.63;;
12535;SDS011;6334;48.696;2.114;2023-02-13T15:13:30;17.77;;;12.37;;
12535;SDS011;6334;48.696;2.114;2023-02-13T15:15:56;19.53;;;13.43;;
12535;SDS011;6334;48.696;2.114;2023-02-13T15:18:41;18.85;;;13.54;;
12535;SDS011;6334;48.696;2.114;2023-02-13T15:21:11;19.53;;;13.70;;
12535;SDS011;6334;48.696;2.114;2023-02-13T15:23:37;19.37;;;14.07;;
12535;SDS011;6334;48.696;2.114;2023-02-13T15:26:08;19.40;;;13.10;;
12535;SDS011;6334;48.696;2.114;2023-02-13T15:28:38;18.13;;;12.10;;
12535;SDS011;6334;48.696;2.114;2023-02-13T15:31:20;18.47;;;12.57;;
12535;SDS011;6334;48.696;2.114;2023-02-13T15:33:50;19.70;;;13.50;;
12535;SDS011;6334;48.696;2.114;2023-02-13T15:36:21;16.67;;;12.57;;
12535;SDS011;6334;48.696;2.114;2023-02-13T15:38:55;18.50;;;13.20;;
12535;SDS011;6334;48.696;2.114;2023-02-13T15:41:20;20.13;;;14.00;;
12535;SDS011;6334;48.696;2.114;2023-02-13T15:43:52;18.07;;;13.20;;
12535;SDS011;6334;48.696;2.114;2023-02-13T15:46:30;19.60;;;13.60;;
12535;SDS011;6334;48.696;2.114;2023-02-13T15:49:06;20.50;;;14.03;;
12535;SDS011;6334;48.696;2.114;2023-02-13T15:51:35;21.43;;;13.00;;
12535;SDS011;6334;48.696;2.114;2023-02-13T15:54:06;18.60;;;12.80;;
12535;SDS011;6334;48.696;2.114;2023-02-13T15:56:35;20.40;;;13.27;;
12535;SDS011;6334;48.696;2.114;2023-02-13T15:59:07;24.67;;;17.23;;
12535;SDS011;6334;48.696;2.114;2023-02-13T16:01:37;21.17;;;15.50;;
12535;SDS011;6334;48.696;2.114;2023-02-13T16:04:07;22.43;;;15.87;;
12535;SDS011;6334;48.696;2.114;2023-02-13T16:06:36;21.10;;;14.93;;
12535;SDS011;6334;48.696;2.114;2023-02-13T16:09:06;19.80;;;13.93;;
12535;SDS011;6334;48.696;2.114;2023-02-13T16:11:39;19.97;;;14.03;;
12535;SDS011;6334;48.696;2.114;2023-02-13T16:14:21;20.40;;;14.57;;
12535;SDS011;6334;48.696;2.114;2023-02-13T16:17:00;20.33;;;14.27;;
12535;SDS011;6334;48.696;2.114;2023-02-13T16:19:36;20.47;;;13.77;;
12535;SDS011;6334;48.696;2.114;2023-02-13T16:22:17;19.07;;;13.53;;
12535;SDS011;6334;48.696;2.114;2023-02-13T16:24:49;19.37;;;12.73;;
12535;SDS011;6334;48.696;2.114;2023-02-13T16:27:19;20.10;;;13.87;;
12535;SDS011;6334;48.696;2.114;2023-02-13T16:29:54;20.50;;;14.33;;
12535;SDS011;6334;48.696;2.114;2023-02-13T16:32:33;29.00;;;18.00;;
12535;SDS011;6334;48.696;2.114;2023-02-13T16:34:53;30.47;;;19.90;;
12535;SDS011;6334;48.696;2.114;2023-02-13T16:37:28;27.73;;;19.62;;
12535;SDS011;6334;48.696;2.114;2023-02-13T16:40:18;23.55;;;17.27;;
12535;SDS011;6334;48.696;2.114;2023-02-13T16:42:46;26.57;;;20.23;;
12535;SDS011;6334;48.696;2.114;2023-02-13T16:45:21;20.93;;;15.87;;
12535;SDS011;6334;48.696;2.114;2023-02-13T16:47:59;21.42;;;15.18;;
12535;SDS011;6334;48.696;2.114;2023-02-13T16:50:29;20.77;;;14.17;;
12535;SDS011;6334;48.696;2.114;2023-02-13T16:53:00;20.17;;;14.47;;
12535;SDS011;6334;48.696;2.114;2023-02-13T16:55:30;21.43;;;15.00;;
12535;SDS011;6334;48.696;2.114;2023-02-13T16:58:03;23.50;;;15.97;;
12535;SDS011;6334;48.696;2.114;2023-02-13T17:00:33;24.60;;;16.40;;
12535;SDS011;6334;48.696;2.114;2023-02-13T17:03:06;24.45;;;17.35;;
12535;SDS011;6334;48.696;2.114;2023-02-13T17:05:38;24.77;;;18.22;;
12535;SDS011;6334;48.696;2.114;2023-02-13T17:08:09;25.62;;;19.15;;
12535;SDS011;6334;48.696;2.114;2023-02-13T17:13:17;26.27;;;18.83;;
12535;SDS011;6334;48.696;2.114;2023-02-13T17:15:46;28.35;;;20.02;;
12535;SDS011;6334;48.696;2.114;2023-02-13T17:18:16;26.77;;;19.97;;
12535;SDS011;6334;48.696;2.114;2023-02-13T17:20:54;26.24;;;18.86;;
12535;SDS011;6334;48.696;2.114;2023-02-13T17:23:24;26.60;;;19.13;;
12535;SDS011;6334;48.696;2.114;2023-02-13T17:25:55;24.73;;;18.50;;
12535;SDS011;6334;48.696;2.114;2023-02-13T17:28:26;25.75;;;19.02;;
12535;SDS011;6334;48.696;2.114;2023-02-13T17:30:57;25.20;;;18.23;;
12535;SDS011;6334;48.696;2.114;2023-02-13T17:33:32;27.58;;;18.71;;
12535;SDS011;6334;48.696;2.114;2023-02-13T17:36:02;27.07;;;18.97;;
12535;SDS011;6334;48.696;2.114;2023-02-13T17:38:34;29.50;;;20.73;;
12535;SDS011;6334;48.696;2.114;2023-02-13T17:41:15;27.23;;;20.05;;
12535;SDS011;6334;48.696;2.114;2023-02-13T17:43:41;29.30;;;19.85;;
12535;SDS011;6334;48.696;2.114;2023-02-13T17:46:13;27.83;;;19.77;;
12535;SDS011;6334;48.696;2.114;2023-02-13T17:48:46;29.15;;;21.27;;
12535;SDS011;6334;48.696;2.114;2023-02-13T17:51:19;30.00;;;21.12;;
12535;SDS011;6334;48.696;2.114;2023-02-13T17:53:49;27.62;;;19.10;;
12535;SDS011;6334;48.696;2.114;2023-02-13T17:56:21;29.17;;;20.92;;
12535;SDS011;6334;48.696;2.114;2023-02-13T17:58:50;27.33;;;20.30;;
12535;SDS011;6334;48.696;2.114;2023-02-13T18:01:20;29.80;;;22.27;;
12535;SDS011;6334;48.696;2.114;2023-02-13T18:03:50;34.83;;;23.85;;
12535;SDS011;6334;48.696;2.114;2023-02-13T18:06:20;36.40;;;26.10;;
12535;SDS011;6334;48.696;2.114;2023-02-13T18:08:49;34.20;;;25.67;;
12535;SDS011;6334;48.696;2.114;2023-02-13T18:13:57;25.08;;;18.22;;
12535;SDS011;6334;48.696;2.114;2023-02-13T18:16:27;33.10;;;24.10;;
12535;SDS011;6334;48.696;2.114;2023-02-13T18:18:58;33.17;;;24.40;;
12535;SDS011;6334;48.696;2.114;2023-02-13T18:21:29;33.33;;;24.37;;
12535;SDS011;6334;48.696;2.114;2023-02-13T18:23:59;31.42;;;23.87;;
12535;SDS011;6334;48.696;2.114;2023-02-13T18:26:29;35.20;;;25.84;;
12535;SDS011;6334;48.696;2.114;2023-02-13T18:29:00;34.43;;;24.63;;
12535;SDS011;6334;48.696;2.114;2023-02-13T18:31:30;35.63;;;26.37;;